Time;durP1;ratioP1;P1;durP2;ratioP2;P2;SDS_P1;SDS_P2;PMS_P1;PMS_P2;Temp;Humidity;BMP_temperature;BMP_pressure;BME280_temperature;BME280_humidity;BME280_pressure;Samples;Min_cycle;Max_cycle;Signal;HPM_P1;HPM_P2
2022/12/30 00:01:33;;;;;;;4.80;1.83;;;9.70;99.90;;;;;;5051615;28;20419;-57
2022/12/30 00:04:00;;;;;;;2.90;1.73;;;9.40;99.90;;;;;;5051606;28;20467;-57
2022/12/30 00:06:27;;;;;;;7.30;2.70;;;10.50;99.90;;;;;;5051711;28;20430;-57
2022/12/30 00:08:55;;;;;;;8.77;2.43;;;10.10;99.90;;;;;;5050877;28;20461;-57
2022/12/30 00:11:23;;;;;;;6.03;2.10;;;10.10;99.90;;;;;;5051651;28;20489;-56
2022/12/30 00:33:26;;;;;;;2.80;1.50;;;10.00;99.90;;;;;;5055069;28;20435;-57
2022/12/30 00:35:53;;;;;;;4.70;2.07;;;10.10;99.90;;;;;;5054335;28;20453;-56
2022/12/30 00:38:20;;;;;;;6.00;2.30;;;10.00;99.90;;;;;;5055126;28;20427;-56
2022/12/30 00:43:27;;;;;;;3.53;1.80;;;10.00;99.90;;;;;;5054719;28;20442;-57
2022/12/30 00:45:53;;;;;;;3.00;1.80;;;9.50;99.90;;;;;;5054904;28;20418;-57
2022/12/30 00:56:35;;;;;;;6.70;2.00;;;10.10;99.90;;;;;;5054673;28;20433;-56
2022/12/30 00:59:01;;;;;;;6.90;3.93;;;10.00;99.90;;;;;;5053905;28;20437;-57
2022/12/30 01:01:28;;;;;;;4.33;2.07;;;10.10;99.90;;;;;;5054112;28;20438;-56
2022/12/30 01:03:55;;;;;;;6.13;2.00;;;10.00;99.90;;;;;;5054943;28;20492;-56
2022/12/30 01:06:23;;;;;;;5.73;1.50;;;10.00;99.90;;;;;;5054611;28;20932;-57
2022/12/30 01:08:49;;;;;;;4.90;1.70;;;10.10;99.90;;;;;;5053705;28;20502;-57
2022/12/30 01:11:16;;;;;;;4.00;1.67;;;9.50;99.90;;;;;;5054572;28;20943;-57
2022/12/30 01:13:42;;;;;;;5.60;1.90;;;9.90;99.90;;;;;;5054404;28;20417;-56
2022/12/30 01:16:13;;;;;;;5.80;1.73;;;9.70;99.90;;;;;;5053157;28;20481;-56
2022/12/30 01:18:40;;;;;;;5.40;2.30;;;9.60;99.90;;;;;;5053479;28;20462;-57
2022/12/30 01:21:08;;;;;;;7.27;1.93;;;9.30;99.90;;;;;;5054349;28;20421;-55
2022/12/30 01:23:36;;;;;;;6.53;1.70;;;9.50;99.90;;;;;;5053843;28;20785;-55
2022/12/30 01:26:05;;;;;;;6.50;1.67;;;9.90;99.90;;;;;;5054531;28;20435;-57
2022/12/30 01:28:32;;;;;;;5.90;1.50;;;9.50;99.90;;;;;;5053373;28;20937;-57
2022/12/30 01:31:00;;;;;;;3.30;1.47;;;9.20;99.90;;;;;;5054077;28;20431;-56
2022/12/30 01:33:27;;;;;;;3.93;2.17;;;9.50;99.90;;;;;;5053915;28;20441;-57
2022/12/30 01:35:54;;;;;;;4.67;1.87;;;9.30;99.90;;;;;;5053945;28;20789;-57
2022/12/30 01:38:20;;;;;;;8.83;2.30;;;9.50;99.90;;;;;;5053867;28;20461;-53
2022/12/30 01:40:48;;;;;;;7.67;2.00;;;9.20;99.90;;;;;;5053670;28;20427;-56
2022/12/30 01:43:17;;;;;;;5.87;1.80;;;9.40;99.90;;;;;;5053842;28;20439;-55
2022/12/30 01:45:45;;;;;;;5.63;1.60;;;9.40;99.90;;;;;;5053845;28;20405;-57
2022/12/30 01:48:20;;;;;;;5.03;1.67;;;9.80;99.90;;;;;;5053634;28;20465;-57
2022/12/30 01:50:51;;;;;;;6.97;1.60;;;9.40;99.90;;;;;;5053333;28;20429;-57
2022/12/30 01:53:21;;;;;;;4.40;1.73;;;9.40;99.90;;;;;;5053704;28;20890;-56
2022/12/30 01:55:54;;;;;;;10.30;3.57;;;9.80;99.90;;;;;;5053731;28;20405;-57
2022/12/30 01:58:26;;;;;;;5.90;2.03;;;9.30;99.90;;;;;;5053571;28;20446;-56
2022/12/30 02:00:53;;;;;;;6.03;1.80;;;9.10;99.90;;;;;;5053531;28;20924;-57
2022/12/30 02:03:20;;;;;;;8.67;2.33;;;9.20;99.90;;;;;;5053278;28;20398;-57
2022/12/30 02:05:48;;;;;;;4.83;2.30;;;9.00;99.90;;;;;;5053513;28;20416;-57
2022/12/30 02:08:17;;;;;;;5.30;2.07;;;9.10;99.90;;;;;;5053254;28;20455;-57
2022/12/30 02:10:46;;;;;;;6.37;2.67;;;8.80;99.90;;;;;;5052562;28;20485;-56
2022/12/30 02:13:16;;;;;;;7.90;2.27;;;9.10;99.90;;;;;;5053365;28;20400;-57
2022/12/30 02:15:55;;;;;;;5.53;2.23;;;9.20;99.90;;;;;;5053230;28;20424;-57
2022/12/30 02:18:30;;;;;;;5.40;1.67;;;9.20;99.90;;;;;;5052774;28;20433;-55
2022/12/30 02:21:23;;;;;;;6.53;1.90;;;9.30;99.90;;;;;;5053212;28;20801;-57
2022/12/30 02:24:34;;;;;;;7.90;2.30;;;9.40;99.90;;;;;;5053424;28;20431;-56
2022/12/30 02:27:22;;;;;;;9.20;2.90;;;9.30;99.90;;;;;;5028475;28;20459;-56
2022/12/30 02:30:03;;;;;;;5.73;2.00;;;9.10;99.90;;;;;;5052108;28;20481;-56
2022/12/30 02:32:39;;;;;;;9.83;2.37;;;9.80;99.90;;;;;;5052966;28;20446;-57
2022/12/30 02:35:17;;;;;;;12.03;2.47;;;9.00;99.90;;;;;;5052658;28;20923;-57
2022/12/30 02:37:52;;;;;;;7.23;1.90;;;9.30;99.90;;;;;;5052706;28;20934;-56
2022/12/30 02:40:25;;;;;;;6.83;2.13;;;9.60;99.90;;;;;;5052128;28;20434;-57
2022/12/30 02:45:44;;;;;;;10.07;1.80;;;9.70;99.90;;;;;;5052803;28;20438;-56
2022/12/30 02:48:16;;;;;;;6.27;2.00;;;9.40;99.90;;;;;;5052596;28;20486;-56
2022/12/30 02:53:35;;;;;;;9.10;2.97;;;9.60;99.90;;;;;;5034901;28;20447;-57
2022/12/30 02:56:01;;;;;;;5.20;1.77;;;9.70;99.90;;;;;;5052624;28;20824;-57
2022/12/30 02:58:33;;;;;;;6.73;1.70;;;9.00;99.90;;;;;;5051690;28;20451;-57
2022/12/30 03:04:11;;;;;;;6.63;2.10;;;9.90;99.90;;;;;;5052391;28;20502;-55
2022/12/30 03:06:58;;;;;;;8.57;2.50;;;9.20;99.90;;;;;;5052353;28;20437;-57
2022/12/30 03:11:12;;;;;;;6.00;2.10;;;9.30;99.90;;;;;;5051443;28;20453;-57
2022/12/30 03:12:31;;;;;;;3.93;2.10;;;9.20;99.90;;;;;;5052105;28;20427;-57
2022/12/30 03:15:01;;;;;;;11.93;2.60;;;9.40;99.90;;;;;;5052189;28;20927;-57
2022/12/30 03:17:31;;;;;;;2.80;1.90;;;9.60;99.90;;;;;;5052123;28;20442;-57
2022/12/30 03:20:02;;;;;;;7.70;1.93;;;9.40;99.90;;;;;;5051793;28;20455;-57
2022/12/30 03:28:07;;;;;;;6.43;2.27;;;9.00;99.90;;;;;;5052028;28;20961;-56
2022/12/30 03:30:36;;;;;;;8.27;2.43;;;9.10;99.90;;;;;;5051109;28;20477;-57
2022/12/30 03:33:03;;;;;;;10.47;2.27;;;9.20;99.90;;;;;;5051945;28;20430;-56
2022/12/30 03:35:35;;;;;;;5.70;2.13;;;8.90;99.90;;;;;;5052159;28;20420;-57
2022/12/30 03:38:04;;;;;;;9.57;2.77;;;9.30;99.90;;;;;;5051930;28;20433;-57
2022/12/30 03:40:35;;;;;;;7.67;2.30;;;9.40;99.90;;;;;;5051224;28;20431;-56
2022/12/30 03:43:02;;;;;;;6.00;1.80;;;9.10;99.90;;;;;;5051887;28;20431;-56
2022/12/30 03:45:29;;;;;;;6.43;2.00;;;9.10;99.90;;;;;;5051907;28;20446;-56
2022/12/30 03:47:56;;;;;;;9.53;3.80;;;9.10;99.90;;;;;;5054595;28;20457;-56
2022/12/30 03:50:22;;;;;;;10.10;2.43;;;8.90;99.90;;;;;;5055401;28;20478;-56
2022/12/30 03:52:50;;;;;;;8.10;2.33;;;8.70;99.90;;;;;;5055988;28;20409;-56
2022/12/30 03:55:18;;;;;;;11.60;2.90;;;8.70;99.90;;;;;;5055949;28;20418;-56
2022/12/30 03:57:45;;;;;;;11.03;3.10;;;8.60;99.90;;;;;;5055945;28;20431;-57
2022/12/30 04:00:12;;;;;;;7.63;2.23;;;8.70;99.90;;;;;;5055059;28;20438;-57
2022/12/30 04:02:40;;;;;;;7.93;2.60;;;8.60;99.90;;;;;;5055848;28;20422;-57
2022/12/30 04:05:07;;;;;;;7.93;1.90;;;9.30;99.90;;;;;;5055705;28;20416;-58
2022/12/30 04:07:34;;;;;;;7.53;2.40;;;8.70;99.90;;;;;;5055708;28;20496;-56
2022/12/30 04:10:03;;;;;;;7.83;3.03;;;8.80;99.90;;;;;;5054739;28;20509;-56
2022/12/30 04:12:30;;;;;;;4.40;2.10;;;8.80;99.90;;;;;;5055590;28;20453;-57
2022/12/30 04:14:56;;;;;;;11.13;2.50;;;9.00;99.90;;;;;;5055445;28;20441;-56
2022/12/30 04:17:23;;;;;;;6.73;2.27;;;8.70;99.90;;;;;;5055408;28;20442;-57
2022/12/30 04:19:49;;;;;;;8.60;2.20;;;9.40;99.90;;;;;;5054614;28;20477;-57
2022/12/30 04:22:16;;;;;;;7.90;2.43;;;8.90;99.90;;;;;;5055439;28;20434;-57
2022/12/30 04:24:43;;;;;;;8.23;2.60;;;9.00;99.90;;;;;;5055275;28;20445;-56
2022/12/30 04:27:10;;;;;;;9.60;2.63;;;9.00;99.90;;;;;;5055503;28;20430;-57
2022/12/30 04:29:37;;;;;;;8.93;2.20;;;8.90;99.90;;;;;;5054441;28;20474;-57
2022/12/30 04:32:04;;;;;;;12.70;2.43;;;8.70;99.90;;;;;;5055390;28;20441;-57
2022/12/30 04:34:30;;;;;;;4.20;1.87;;;8.90;99.90;;;;;;5055039;28;20434;-56
2022/12/30 04:36:57;;;;;;;11.50;2.67;;;8.60;99.90;;;;;;5055005;28;20437;-56
2022/12/30 04:39:23;;;;;;;10.33;2.47;;;8.60;99.90;;;;;;5054085;28;20462;-54
2022/12/30 04:41:50;;;;;;;8.20;2.53;;;8.50;99.90;;;;;;5055129;28;20525;-54
2022/12/30 04:44:18;;;;;;;8.50;2.73;;;8.60;99.90;;;;;;5053658;28;20449;-54
2022/12/30 04:46:44;;;;;;;7.50;2.23;;;8.60;99.90;;;;;;5053628;28;20922;-55
2022/12/30 04:49:11;;;;;;;9.63;3.07;;;8.20;99.90;;;;;;5054022;28;20441;-55
2022/12/30 04:51:38;;;;;;;7.87;2.47;;;8.20;99.90;;;;;;5055095;28;20426;-55
2022/12/30 04:54:05;;;;;;;11.67;2.93;;;8.60;99.90;;;;;;5055092;28;20443;-57
2022/12/30 04:56:31;;;;;;;9.90;2.90;;;8.30;99.90;;;;;;5055380;28;20409;-54
2022/12/30 04:58:58;;;;;;;5.40;1.87;;;7.90;99.90;;;;;;5052651;28;20437;-55
2022/12/30 05:01:26;;;;;;;5.23;1.90;;;8.50;99.90;;;;;;5054993;28;20480;-55
2022/12/30 05:03:52;;;;;;;6.93;2.37;;;8.20;99.90;;;;;;5053244;28;20450;-55
2022/12/30 05:06:19;;;;;;;12.20;2.43;;;8.40;99.90;;;;;;5054570;28;20443;-55
2022/12/30 05:08:46;;;;;;;9.43;2.23;;;8.10;99.90;;;;;;5053835;28;20464;-55
2022/12/30 05:11:12;;;;;;;13.97;2.70;;;8.10;99.90;;;;;;5054451;28;20478;-56
2022/12/30 05:13:39;;;;;;;5.53;2.27;;;8.40;99.90;;;;;;5054392;28;20434;-55
2022/12/30 05:16:06;;;;;;;5.17;2.57;;;8.30;99.90;;;;;;5054334;28;20409;-56
2022/12/30 05:18:34;;;;;;;9.43;1.60;;;8.30;99.90;;;;;;5053780;28;20458;-56
2022/12/30 05:21:00;;;;;;;7.20;2.10;;;8.20;99.90;;;;;;5054103;28;20417;-56
2022/12/30 05:26:16;;;;;;;13.93;3.00;;;8.00;99.90;;;;;;5031399;28;20943;-55
2022/12/30 05:28:44;;;;;;;5.87;1.70;;;8.00;99.90;;;;;;5053697;28;20831;-55
2022/12/30 05:31:11;;;;;;;9.10;2.10;;;7.40;99.90;;;;;;5054257;28;21045;-56
2022/12/30 05:33:39;;;;;;;8.67;2.27;;;8.10;99.90;;;;;;5054503;28;20480;-55
2022/12/30 05:36:07;;;;;;;8.60;2.37;;;7.50;99.90;;;;;;5053963;28;20488;-55
2022/12/30 05:38:33;;;;;;;7.83;2.40;;;7.90;99.90;;;;;;5053160;28;20537;-55
2022/12/30 05:41:00;;;;;;;14.83;3.40;;;7.70;99.90;;;;;;5053816;28;20932;-55
2022/12/30 05:43:27;;;;;;;8.00;2.07;;;7.40;99.90;;;;;;5053869;28;20523;-55
2022/12/30 05:45:54;;;;;;;11.97;2.57;;;7.90;99.90;;;;;;5053780;28;20437;-55
2022/12/30 05:48:20;;;;;;;7.87;2.13;;;7.70;99.90;;;;;;5053818;28;20515;-57
2022/12/30 05:50:50;;;;;;;8.20;2.40;;;8.00;99.90;;;;;;5053120;28;20457;-57
2022/12/30 05:53:17;;;;;;;8.43;2.60;;;7.90;99.90;;;;;;5053729;28;20413;-55
2022/12/30 05:55:44;;;;;;;9.47;2.37;;;7.80;99.90;;;;;;5053835;28;20417;-56
2022/12/30 05:58:10;;;;;;;8.63;2.13;;;7.90;99.90;;;;;;5053488;28;20429;-55
2022/12/30 06:00:38;;;;;;;9.43;2.00;;;7.70;99.90;;;;;;5052513;28;20427;-55
2022/12/30 06:03:05;;;;;;;10.33;2.10;;;7.70;99.90;;;;;;5053363;28;20467;-55
2022/12/30 06:05:31;;;;;;;10.67;2.97;;;7.20;99.90;;;;;;5053559;28;20805;-57
2022/12/30 06:07:59;;;;;;;9.57;2.70;;;7.70;99.90;;;;;;5053452;28;20950;-55
2022/12/30 06:10:26;;;;;;;10.90;3.10;;;7.70;99.90;;;;;;5051935;28;20489;-56
2022/12/30 06:12:52;;;;;;;6.40;2.30;;;7.20;99.90;;;;;;5053338;28;20439;-56
2022/12/30 06:15:19;;;;;;;10.67;2.27;;;7.60;99.90;;;;;;5053264;28;20413;-55
2022/12/30 06:17:45;;;;;;;6.37;2.70;;;7.50;99.90;;;;;;5053013;28;20910;-57
2022/12/30 06:20:12;;;;;;;5.57;2.37;;;7.50;99.90;;;;;;5053021;28;20454;-56
2022/12/30 06:22:39;;;;;;;12.83;2.87;;;7.70;99.90;;;;;;5053224;28;20437;-55
2022/12/30 06:25:08;;;;;;;9.80;2.40;;;7.70;99.90;;;;;;5053611;28;20439;-55
2022/12/30 06:27:34;;;;;;;9.07;2.70;;;7.60;99.90;;;;;;5053047;28;20499;-55
2022/12/30 06:30:01;;;;;;;9.50;2.57;;;7.20;99.90;;;;;;5052364;28;20912;-55
2022/12/30 06:32:27;;;;;;;9.53;2.80;;;7.50;99.90;;;;;;5052986;28;20438;-55
2022/12/30 06:34:54;;;;;;;7.63;2.50;;;6.80;99.90;;;;;;5052895;28;20426;-55
2022/12/30 06:37:21;;;;;;;6.10;2.53;;;7.50;99.90;;;;;;5053139;28;20747;-56
2022/12/30 06:39:47;;;;;;;8.13;2.73;;;7.50;99.90;;;;;;5052105;28;20456;-56
2022/12/30 06:42:15;;;;;;;7.97;2.87;;;7.00;99.90;;;;;;5051408;28;20478;-57
2022/12/30 06:44:42;;;;;;;9.73;2.17;;;7.50;99.90;;;;;;5052722;28;20423;-55
2022/12/30 06:47:08;;;;;;;14.30;3.63;;;7.20;99.90;;;;;;5052812;28;20438;-57
2022/12/30 06:49:35;;;;;;;8.30;2.60;;;7.10;99.90;;;;;;5051854;28;20440;-56
2022/12/30 06:52:01;;;;;;;5.17;2.27;;;7.00;99.90;;;;;;5052570;28;20990;-55
2022/12/30 06:54:28;;;;;;;9.43;2.83;;;7.30;99.90;;;;;;5052668;28;20430;-56
2022/12/30 06:56:55;;;;;;;11.93;2.37;;;7.30;99.90;;;;;;5052446;28;20441;-56
2022/12/30 06:59:22;;;;;;;13.93;2.80;;;7.00;99.90;;;;;;5051609;28;20430;-55
2022/12/30 07:01:49;;;;;;;11.00;2.83;;;7.30;99.90;;;;;;5052375;28;20919;-56
2022/12/30 07:04:16;;;;;;;10.27;2.90;;;7.00;99.90;;;;;;5052516;28;20430;-55
2022/12/30 07:06:42;;;;;;;11.67;2.83;;;7.10;99.90;;;;;;5052487;28;20437;-55
2022/12/30 07:09:10;;;;;;;18.57;2.83;;;7.00;99.90;;;;;;5051562;28;20454;-55
2022/12/30 07:11:36;;;;;;;8.67;2.97;;;7.20;99.90;;;;;;5052148;28;20518;-56
2022/12/30 07:14:03;;;;;;;9.23;2.80;;;7.10;99.90;;;;;;5052350;28;20460;-56
2022/12/30 07:16:30;;;;;;;14.07;2.80;;;6.80;99.90;;;;;;5052089;28;20411;-56
2022/12/30 07:18:57;;;;;;;8.20;2.47;;;6.90;99.90;;;;;;5051279;28;21039;-56
2022/12/30 07:21:24;;;;;;;10.97;3.03;;;6.70;99.90;;;;;;5051480;28;20429;-55
2022/12/30 07:23:50;;;;;;;11.13;3.50;;;7.10;99.90;;;;;;5052117;28;20430;-56
2022/12/30 07:26:17;;;;;;;13.27;2.70;;;7.00;99.90;;;;;;5052122;28;20444;-56
2022/12/30 07:28:43;;;;;;;10.03;2.13;;;7.10;99.90;;;;;;5051068;28;20961;-56
2022/12/30 07:31:10;;;;;;;7.23;2.70;;;7.00;99.90;;;;;;5052191;28;20839;-56
2022/12/30 07:33:38;;;;;;;8.93;2.17;;;7.00;99.90;;;;;;5051906;28;20433;-55
2022/12/30 07:36:05;;;;;;;9.43;3.30;;;6.90;99.90;;;;;;5051595;28;20433;-54
2022/12/30 07:38:32;;;;;;;9.57;3.10;;;7.00;99.90;;;;;;5050951;28;20507;-55
2022/12/30 07:40:58;;;;;;;9.27;3.20;;;6.80;99.90;;;;;;5051850;28;20513;-55
2022/12/30 07:43:25;;;;;;;16.93;4.87;;;7.00;99.90;;;;;;5051968;28;20411;-55
2022/12/30 07:45:52;;;;;;;9.60;3.30;;;6.80;99.90;;;;;;5051720;28;20439;-56
2022/12/30 07:48:18;;;;;;;10.20;4.40;;;6.50;99.90;;;;;;5051864;28;20461;-55
2022/12/30 07:50:46;;;;;;;10.30;3.90;;;6.60;99.90;;;;;;5050919;28;20964;-55
2022/12/30 07:53:13;;;;;;;10.60;4.03;;;6.80;99.90;;;;;;5051911;28;20810;-55
2022/12/30 07:55:40;;;;;;;8.90;4.27;;;7.20;99.90;;;;;;5051723;28;20442;-55
2022/12/30 07:58:07;;;;;;;7.00;2.37;;;6.80;99.90;;;;;;5051725;28;20488;-56
2022/12/30 08:00:34;;;;;;;17.03;3.17;;;7.10;99.90;;;;;;5051092;28;20448;-55
2022/12/30 08:03:01;;;;;;;15.90;3.47;;;7.20;99.90;;;;;;5051620;28;20434;-55
2022/12/30 08:05:28;;;;;;;9.40;3.17;;;7.10;99.90;;;;;;5051816;28;20510;-56
2022/12/30 08:07:56;;;;;;;7.90;2.60;;;7.20;99.90;;;;;;5051426;28;20427;-56
2022/12/30 08:10:22;;;;;;;9.43;3.63;;;7.30;99.90;;;;;;5050625;28;20446;-56
2022/12/30 08:12:49;;;;;;;11.70;3.47;;;6.90;99.90;;;;;;5051525;28;20411;-54
2022/12/30 08:15:16;;;;;;;11.37;4.57;;;7.00;99.90;;;;;;5051517;28;20476;-55
2022/12/30 08:17:43;;;;;;;8.77;4.20;;;7.10;99.90;;;;;;5051438;28;20438;-55
2022/12/30 08:20:10;;;;;;;10.53;4.17;;;6.60;99.90;;;;;;5050681;28;20954;-55
2022/12/30 08:22:36;;;;;;;12.23;4.00;;;7.20;99.90;;;;;;5051514;28;20453;-56
2022/12/30 08:25:05;;;;;;;8.00;3.80;;;7.00;99.90;;;;;;5051898;28;20422;-55
2022/12/30 08:27:33;;;;;;;14.03;3.70;;;6.90;99.90;;;;;;5051819;28;20436;-55
2022/12/30 08:29:59;;;;;;;8.80;3.80;;;6.90;99.90;;;;;;5050452;28;20446;-55
2022/12/30 08:32:26;;;;;;;9.77;4.30;;;7.10;99.90;;;;;;5051488;28;20481;-55
2022/12/30 08:34:53;;;;;;;11.60;4.77;;;6.90;99.90;;;;;;5055099;28;20431;-56
2022/12/30 08:37:19;;;;;;;8.17;2.87;;;7.30;99.90;;;;;;5054926;28;20444;-55
2022/12/30 08:39:46;;;;;;;12.40;3.60;;;6.50;99.90;;;;;;5054357;28;20424;-54
2022/12/30 08:42:14;;;;;;;9.23;3.13;;;7.30;99.90;;;;;;5054819;28;20433;-56
2022/12/30 08:44:41;;;;;;;10.93;2.80;;;7.10;99.90;;;;;;5054719;28;20447;-56
2022/12/30 08:47:07;;;;;;;12.73;3.63;;;7.10;99.90;;;;;;5054690;28;20459;-56
2022/12/30 08:49:34;;;;;;;12.77;4.80;;;7.10;99.90;;;;;;5054177;28;20434;-56
2022/12/30 08:52:02;;;;;;;7.57;2.80;;;7.00;99.90;;;;;;5054727;28;20487;-56
2022/12/30 08:54:28;;;;;;;13.60;2.60;;;7.20;99.90;;;;;;5054530;28;20428;-55
2022/12/30 08:56:55;;;;;;;6.57;3.70;;;7.10;99.90;;;;;;5054697;28;20411;-56
2022/12/30 08:59:23;;;;;;;9.10;2.63;;;7.50;99.90;;;;;;5053788;28;20446;-56
2022/12/30 09:01:49;;;;;;;14.43;2.80;;;6.90;99.90;;;;;;5054420;28;20432;-56
2022/12/30 09:04:17;;;;;;;13.23;2.90;;;7.40;99.90;;;;;;5054525;28;20442;-56
2022/12/30 09:06:44;;;;;;;8.60;3.23;;;7.40;99.90;;;;;;5053105;28;20464;-56
2022/12/30 09:09:12;;;;;;;8.63;2.77;;;7.50;99.90;;;;;;5053845;28;20453;-56
2022/12/30 09:11:41;;;;;;;12.77;3.03;;;7.40;99.90;;;;;;5054241;28;20481;-55
2022/12/30 09:14:09;;;;;;;15.07;3.87;;;7.40;99.90;;;;;;5054201;28;20805;-57
2022/12/30 09:16:37;;;;;;;9.33;3.83;;;7.50;99.90;;;;;;5054212;28;20441;-56
2022/12/30 09:19:04;;;;;;;15.87;4.50;;;7.40;99.90;;;;;;5052327;28;20489;-56
2022/12/30 09:21:31;;;;;;;11.13;3.93;;;7.50;99.90;;;;;;5054231;28;20437;-56
2022/12/30 09:23:58;;;;;;;9.10;4.00;;;7.60;99.90;;;;;;5054343;28;20446;-56
2022/12/30 09:26:27;;;;;;;9.43;2.97;;;7.70;99.90;;;;;;5053943;28;20434;-55
2022/12/30 09:28:54;;;;;;;8.73;2.40;;;7.60;99.90;;;;;;5053124;28;20978;-57
2022/12/30 09:31:21;;;;;;;11.67;2.87;;;7.50;99.90;;;;;;5053912;28;20482;-56
2022/12/30 09:33:48;;;;;;;7.37;3.30;;;7.70;99.90;;;;;;5054114;28;20412;-57
2022/12/30 09:36:15;;;;;;;13.73;4.03;;;7.80;99.90;;;;;;5053916;28;20956;-56
2022/12/30 09:38:42;;;;;;;10.10;2.87;;;7.10;99.90;;;;;;5053076;28;20808;-56
2022/12/30 09:41:13;;;;;;;18.80;11.80;;;7.80;99.90;;;;;;5053638;28;20770;-55
2022/12/30 09:43:47;;;;;;;7.23;3.10;;;7.70;99.90;;;;;;5053787;28;20404;-57
2022/12/30 09:46:31;;;;;;;9.20;3.90;;;7.20;99.90;;;;;;5052848;28;21023;-57
2022/12/30 09:49:02;;;;;;;8.97;2.80;;;7.50;99.90;;;;;;5052890;28;20983;-56
2022/12/30 09:51:35;;;;;;;11.10;3.17;;;7.90;99.90;;;;;;5052174;28;20470;-54
2022/12/30 09:54:05;;;;;;;9.97;3.37;;;7.90;99.90;;;;;;5053588;28;20519;-56
2022/12/30 09:56:34;;;;;;;11.97;5.03;;;7.90;99.90;;;;;;5053792;28;20430;-56
2022/12/30 09:59:06;;;;;;;9.30;3.40;;;7.80;99.90;;;;;;5052566;28;20453;-56
2022/12/30 10:01:40;;;;;;;15.33;3.50;;;7.90;99.90;;;;;;5053475;28;20435;-55
2022/12/30 10:04:15;;;;;;;8.40;2.60;;;7.90;99.90;;;;;;5053512;28;20442;-56
2022/12/30 10:06:48;;;;;;;11.97;3.93;;;7.80;99.90;;;;;;5053500;28;20445;-57
2022/12/30 10:09:38;;;;;;;10.07;3.37;;;8.00;99.90;;;;;;5051960;28;20446;-57
2022/12/30 10:12:23;;;;;;;9.47;3.17;;;8.10;99.90;;;;;;5052900;28;20536;-56
2022/12/30 10:14:59;;;;;;;11.57;3.03;;;8.10;99.90;;;;;;5053052;28;20434;-56
2022/12/30 10:17:45;;;;;;;6.67;3.13;;;7.40;99.90;;;;;;5052720;28;20869;-56
2022/12/30 10:20:25;;;;;;;15.10;2.93;;;8.00;99.90;;;;;;5052083;28;20449;-56
2022/12/30 10:23:00;;;;;;;13.03;4.20;;;7.90;99.90;;;;;;5035185;28;20427;-56
2022/12/30 10:25:33;;;;;;;13.83;4.53;;;7.90;99.90;;;;;;5052867;28;20438;-56
2022/12/30 10:28:02;;;;;;;22.03;4.47;;;8.00;99.90;;;;;;5052617;28;20465;-60
2022/12/30 10:30:35;;;;;;;11.47;3.30;;;7.70;99.90;;;;;;5052006;28;20409;-56
2022/12/30 10:33:06;;;;;;;15.60;3.87;;;8.10;99.90;;;;;;5052357;28;20582;-56
2022/12/30 10:35:35;;;;;;;9.87;3.50;;;8.10;99.90;;;;;;5052558;28;20434;-56
2022/12/30 10:38:10;;;;;;;15.77;3.53;;;8.00;99.90;;;;;;5052468;28;20453;-56
2022/12/30 10:40:48;;;;;;;14.10;4.00;;;8.10;99.90;;;;;;5052175;28;20415;-57
2022/12/30 10:43:31;;;;;;;10.03;3.23;;;8.30;99.90;;;;;;5052379;28;20434;-57
2022/12/30 10:46:13;;;;;;;10.70;4.30;;;8.30;99.90;;;;;;5052346;28;20910;-55
2022/12/30 10:49:06;;;;;;;12.37;3.70;;;8.30;99.90;;;;;;5051527;28;20531;-57
2022/12/30 10:51:34;;;;;;;20.90;4.57;;;8.20;99.90;;;;;;5052120;28;20481;-56
2022/12/30 10:54:01;;;;;;;22.23;3.63;;;8.40;99.90;;;;;;5052302;28;20434;-57
2022/12/30 10:56:30;;;;;;;9.30;3.23;;;8.60;99.90;;;;;;5052100;28;20441;-57
2022/12/30 10:58:59;;;;;;;8.43;3.30;;;8.50;99.90;;;;;;5051331;28;20454;-55
2022/12/30 11:01:30;;;;;;;12.47;3.87;;;8.30;99.90;;;;;;5051815;28;20434;-56
2022/12/30 11:03:58;;;;;;;10.20;3.10;;;8.40;99.90;;;;;;5052071;28;20438;-56
2022/12/30 11:06:27;;;;;;;11.73;3.00;;;8.30;99.90;;;;;;5052264;28;20460;-55
2022/12/30 11:09:22;;;;;;;6.53;2.97;;;8.70;99.90;;;;;;5051446;28;20455;-57
2022/12/30 11:14:43;;;;;;;10.37;3.20;;;8.50;99.90;;;;;;5052016;28;20422;-57
2022/12/30 11:17:20;;;;;;;10.40;3.30;;;8.70;99.90;;;;;;5050465;28;20450;-57
2022/12/30 11:19:51;;;;;;;10.53;3.10;;;8.30;99.90;;;;;;5050994;28;20470;-55
2022/12/30 11:22:18;;;;;;;15.40;2.83;;;8.80;99.90;;;;;;5051930;28;20463;-57
2022/12/30 11:24:55;;;;;;;6.97;2.93;;;8.60;99.90;;;;;;5051762;28;20431;-57
2022/12/30 11:27:31;;;;;;;12.00;3.43;;;8.80;99.90;;;;;;5051880;28;20434;-56
2022/12/30 11:29:58;;;;;;;14.87;3.70;;;9.00;99.90;;;;;;5051121;28;20450;-57
2022/12/30 11:32:25;;;;;;;22.60;4.00;;;8.60;99.90;;;;;;5051744;28;20486;-57
2022/12/30 11:34:51;;;;;;;8.97;2.73;;;9.00;99.90;;;;;;5051734;28;20441;-56
2022/12/30 11:37:24;;;;;;;8.13;3.63;;;8.80;99.90;;;;;;5051411;28;20435;-57
2022/12/30 11:39:52;;;;;;;11.10;2.60;;;8.80;99.90;;;;;;5051334;28;20446;-57
2022/12/30 11:42:29;;;;;;;8.33;3.00;;;8.30;99.90;;;;;;5051531;28;20440;-56
2022/12/30 11:45:16;;;;;;;9.33;2.57;;;9.00;99.90;;;;;;5050987;28;20444;-57
2022/12/30 11:47:45;;;;;;;13.07;3.60;;;9.20;99.90;;;;;;5050089;28;20446;-57
2022/12/30 11:50:17;;;;;;;7.27;2.43;;;9.10;99.90;;;;;;5050672;28;20499;-57
2022/12/30 11:52:49;;;;;;;6.50;2.60;;;9.60;99.90;;;;;;5050979;28;20608;-57
2022/12/30 11:55:23;;;;;;;6.30;2.27;;;9.10;99.90;;;;;;5050948;28;20416;-56
2022/12/30 11:57:51;;;;;;;11.90;3.40;;;9.10;99.90;;;;;;5051527;28;20515;-55
2022/12/30 12:00:35;;;;;;;8.10;2.97;;;9.00;99.90;;;;;;5050838;28;20471;-57
2022/12/30 12:03:05;;;;;;;15.70;4.23;;;9.20;99.90;;;;;;5051219;28;20530;-55
2022/12/30 12:05:40;;;;;;;13.10;2.47;;;9.60;99.90;;;;;;5051358;28;20442;-55
2022/12/30 12:08:14;;;;;;;13.13;2.50;;;9.60;99.90;;;;;;5052651;28;20456;-57
2022/12/30 12:10:48;;;;;;;8.83;2.80;;;8.90;99.90;;;;;;5054815;28;20514;-57
2022/12/30 12:13:26;;;;;;;9.53;3.00;;;9.30;99.90;;;;;;5054803;28;20448;-55
2022/12/30 12:15:55;;;;;;;11.93;2.90;;;9.40;99.90;;;;;;5055384;28;20429;-56
2022/12/30 12:18:28;;;;;;;11.30;2.90;;;8.90;99.90;;;;;;5054630;28;20445;-55
2022/12/30 12:21:05;;;;;;;4.60;2.47;;;9.50;99.90;;;;;;5055788;28;20430;-55
2022/12/30 12:23:45;;;;;;;13.77;3.47;;;9.90;99.90;;;;;;5054942;28;20449;-55
2022/12/30 12:26:17;;;;;;;12.00;3.03;;;9.50;99.90;;;;;;5055003;28;20910;-56
2022/12/30 12:28:45;;;;;;;21.10;3.70;;;9.50;99.90;;;;;;5054222;28;20450;-56
2022/12/30 12:31:42;;;;;;;11.47;2.90;;;9.20;99.90;;;;;;5054782;28;20833;-55
2022/12/30 12:34:18;;;;;;;8.13;3.27;;;9.50;99.90;;;;;;5047776;28;20465;-55
2022/12/30 12:36:55;;;;;;;9.30;3.40;;;9.60;99.90;;;;;;5054961;28;20422;-54
2022/12/30 12:39:31;;;;;;;5.63;2.90;;;9.40;99.90;;;;;;5053955;28;20454;-56
2022/12/30 12:42:06;;;;;;;8.77;2.87;;;9.60;99.90;;;;;;5054896;28;20499;-55
2022/12/30 12:45:10;;;;;;;9.83;3.30;;;9.40;99.90;;;;;;5054686;28;20492;-55
2022/12/30 12:47:51;;;;;;;14.20;2.93;;;9.20;99.90;;;;;;5054424;28;20534;-57
2022/12/30 12:50:50;;;;;;;10.60;3.73;;;9.40;99.90;;;;;;5053721;28;20477;-56
2022/12/30 12:53:42;;;;;;;12.50;3.47;;;9.30;99.90;;;;;;5054340;28;20466;-57
2022/12/30 12:56:29;;;;;;;7.87;3.10;;;9.20;99.90;;;;;;5054490;28;20409;-56
2022/12/30 12:59:09;;;;;;;13.37;2.80;;;9.70;99.90;;;;;;5053851;28;20827;-55
2022/12/30 13:01:40;;;;;;;12.60;3.07;;;9.50;99.90;;;;;;5054605;28;20409;-55
2022/12/30 13:04:20;;;;;;;11.13;3.40;;;9.80;99.90;;;;;;5054223;28;20904;-56
2022/12/30 13:06:58;;;;;;;7.93;3.37;;;10.00;99.90;;;;;;5054307;28;20434;-54
2022/12/30 13:09:50;;;;;;;13.97;3.83;;;10.10;99.90;;;;;;5053414;28;20450;-57
2022/12/30 13:12:21;;;;;;;11.03;3.50;;;9.50;99.90;;;;;;5053895;28;20787;-57
2022/12/30 13:14:53;;;;;;;6.20;3.10;;;9.60;99.90;;;;;;5054460;28;20405;-57
2022/12/30 13:17:34;;;;;;;9.13;2.70;;;9.60;99.90;;;;;;5054172;28;20434;-57
2022/12/30 13:20:08;;;;;;;10.90;2.80;;;9.80;99.90;;;;;;5051459;28;20466;-57
2022/12/30 13:22:36;;;;;;;9.50;2.97;;;9.60;99.90;;;;;;5054442;28;20967;-57
2022/12/30 13:25:12;;;;;;;19.20;3.50;;;9.30;99.90;;;;;;5053719;28;20784;-57
2022/12/30 13:27:41;;;;;;;9.60;3.13;;;9.80;99.90;;;;;;5053906;28;20425;-57
2022/12/30 13:30:14;;;;;;;11.33;2.80;;;9.70;99.90;;;;;;5053133;28;20446;-57
2022/12/30 13:32:51;;;;;;;10.87;3.40;;;9.50;99.90;;;;;;5053689;28;20570;-57
2022/12/30 13:35:41;;;;;;;9.17;3.43;;;9.60;99.90;;;;;;5053807;28;20529;-55
2022/12/30 13:38:20;;;;;;;9.60;3.50;;;9.70;99.90;;;;;;5053449;28;21006;-55
2022/12/30 13:40:59;;;;;;;20.50;3.90;;;9.80;99.90;;;;;;5053100;28;20462;-56
2022/12/30 13:43:35;;;;;;;8.97;3.53;;;10.00;99.90;;;;;;5053579;28;20419;-57
2022/12/30 13:46:03;;;;;;;18.43;3.60;;;10.00;99.90;;;;;;5053597;28;20408;-56
2022/12/30 13:48:33;;;;;;;11.53;3.60;;;9.80;99.90;;;;;;5052252;28;20466;-55
2022/12/30 13:51:03;;;;;;;8.40;3.67;;;9.50;99.90;;;;;;5053217;28;20462;-57
2022/12/30 13:53:36;;;;;;;17.60;4.57;;;9.60;99.90;;;;;;5052988;28;21008;-56
2022/12/30 13:56:04;;;;;;;6.90;3.13;;;9.70;99.90;;;;;;5053327;28;20438;-56
2022/12/30 13:58:33;;;;;;;7.43;2.90;;;9.60;99.90;;;;;;5052472;28;20797;-57
2022/12/30 14:01:36;;;;;;;8.73;4.13;;;9.60;99.90;;;;;;5052939;28;20849;-57